sensor_id;sensor_type;location;lat;lon;timestamp;temperature;humidity
12815;DHT22;6472;52.328;13.070;2023-02-19T00:01:48;5.30;99.90
12815;DHT22;6472;52.328;13.070;2023-02-19T00:04:19;5.30;99.90
12815;DHT22;6472;52.328;13.070;2023-02-19T00:06:48;5.30;99.90
12815;DHT22;6472;52.328;13.070;2023-02-19T00:09:18;5.30;99.90
12815;DHT22;6472;52.328;13.070;2023-02-19T00:11:46;5.30;99.90
12815;DHT22;6472;52.328;13.070;2023-02-19T00:14:16;5.30;99.90
12815;DHT22;6472;52.328;13.070;2023-02-19T00:16:46;5.20;99.90
12815;DHT22;6472;52.328;13.070;2023-02-19T00:19:17;5.20;99.90
12815;DHT22;6472;52.328;13.070;2023-02-19T00:21:46;5.20;99.90
12815;DHT22;6472;52.328;13.070;2023-02-19T00:24:15;5.20;99.90
12815;DHT22;6472;52.328;13.070;2023-02-19T00:26:44;5.20;99.90
12815;DHT22;6472;52.328;13.070;2023-02-19T00:29:14;5.20;99.90
12815;DHT22;6472;52.328;13.070;2023-02-19T00:34:29;5.20;99.90
12815;DHT22;6472;52.328;13.070;2023-02-19T00:36:57;5.30;99.90
12815;DHT22;6472;52.328;13.070;2023-02-19T00:39:25;5.20;99.90
12815;DHT22;6472;52.328;13.070;2023-02-19T00:41:53;5.20;99.90
12815;DHT22;6472;52.328;13.070;2023-02-19T00:44:21;5.20;99.90
12815;DHT22;6472;52.328;13.070;2023-02-19T00:46:48;5.20;99.90
12815;DHT22;6472;52.328;13.070;2023-02-19T00:49:18;5.20;99.90
12815;DHT22;6472;52.328;13.070;2023-02-19T00:51:49;5.30;99.90
12815;DHT22;6472;52.328;13.070;2023-02-19T00:54:18;5.30;99.90
12815;DHT22;6472;52.328;13.070;2023-02-19T00:56:48;5.20;99.90
12815;DHT22;6472;52.328;13.070;2023-02-19T00:59:16;5.30;99.90
12815;DHT22;6472;52.328;13.070;2023-02-19T01:01:44;5.30;99.90
12815;DHT22;6472;52.328;13.070;2023-02-19T01:04:12;5.20;99.90
12815;DHT22;6472;52.328;13.070;2023-02-19T01:06:42;5.20;99.90
12815;DHT22;6472;52.328;13.070;2023-02-19T01:09:11;5.20;99.90
12815;DHT22;6472;52.328;13.070;2023-02-19T01:11:39;5.10;99.90
12815;DHT22;6472;52.328;13.070;2023-02-19T01:14:08;5.00;99.90
12815;DHT22;6472;52.328;13.070;2023-02-19T01:16:36;5.10;99.90
12815;DHT22;6472;52.328;13.070;2023-02-19T01:19:04;5.00;99.90
12815;DHT22;6472;52.328;13.070;2023-02-19T01:21:32;4.90;99.90
12815;DHT22;6472;52.328;13.070;2023-02-19T01:24:00;4.80;99.90
12815;DHT22;6472;52.328;13.070;2023-02-19T01:26:31;4.80;99.90
12815;DHT22;6472;52.328;13.070;2023-02-19T01:29:00;4.70;99.90
12815;DHT22;6472;52.328;13.070;2023-02-19T01:31:29;4.70;99.90
12815;DHT22;6472;52.328;13.070;2023-02-19T01:33:59;4.70;99.90
12815;DHT22;6472;52.328;13.070;2023-02-19T01:36:28;4.70;99.90
12815;DHT22;6472;52.328;13.070;2023-02-19T01:38:58;4.60;99.90
12815;DHT22;6472;52.328;13.070;2023-02-19T01:41:34;4.60;99.90
12815;DHT22;6472;52.328;13.070;2023-02-19T01:44:04;4.60;99.90
12815;DHT22;6472;52.328;13.070;2023-02-19T01:46:34;4.60;99.90
12815;DHT22;6472;52.328;13.070;2023-02-19T01:49:06;4.60;99.90
12815;DHT22;6472;52.328;13.070;2023-02-19T01:51:37;4.70;99.90
12815;DHT22;6472;52.328;13.070;2023-02-19T01:54:07;4.70;99.90
12815;DHT22;6472;52.328;13.070;2023-02-19T01:56:40;4.60;99.90
12815;DHT22;6472;52.328;13.070;2023-02-19T01:59:09;4.60;99.90
12815;DHT22;6472;52.328;13.070;2023-02-19T02:01:38;4.70;99.90
12815;DHT22;6472;52.328;13.070;2023-02-19T02:04:08;4.70;99.90
12815;DHT22;6472;52.328;13.070;2023-02-19T02:06:41;4.70;99.90
12815;DHT22;6472;52.328;13.070;2023-02-19T02:09:12;4.60;99.90
12815;DHT22;6472;52.328;13.070;2023-02-19T02:11:58;4.60;99.90
12815;DHT22;6472;52.328;13.070;2023-02-19T02:14:29;4.60;99.90
12815;DHT22;6472;52.328;13.070;2023-02-19T02:17:11;4.60;99.90
12815;DHT22;6472;52.328;13.070;2023-02-19T02:20:00;4.50;99.90
12815;DHT22;6472;52.328;13.070;2023-02-19T02:22:35;4.60;99.90
12815;DHT22;6472;52.328;13.070;2023-02-19T02:25:28;4.50;99.90
12815;DHT22;6472;52.328;13.070;2023-02-19T02:28:11;4.50;99.90
12815;DHT22;6472;52.328;13.070;2023-02-19T02:30:46;4.50;99.90
12815;DHT22;6472;52.328;13.070;2023-02-19T02:33:25;4.50;99.90
12815;DHT22;6472;52.328;13.070;2023-02-19T02:35:58;4.50;99.90
12815;DHT22;6472;52.328;13.070;2023-02-19T02:38:29;4.50;99.90
12815;DHT22;6472;52.328;13.070;2023-02-19T02:40:58;4.40;99.90
12815;DHT22;6472;52.328;13.070;2023-02-19T02:43:27;4.40;99.90
12815;DHT22;6472;52.328;13.070;2023-02-19T02:45:56;4.40;99.90
12815;DHT22;6472;52.328;13.070;2023-02-19T02:48:32;4.40;99.90
12815;DHT22;6472;52.328;13.070;2023-02-19T02:51:08;4.40;99.90
12815;DHT22;6472;52.328;13.070;2023-02-19T02:53:42;4.40;99.90
12815;DHT22;6472;52.328;13.070;2023-02-19T02:56:29;4.40;99.90
12815;DHT22;6472;52.328;13.070;2023-02-19T02:59:00;4.40;99.90
12815;DHT22;6472;52.328;13.070;2023-02-19T03:01:35;4.40;99.90
12815;DHT22;6472;52.328;13.070;2023-02-19T03:04:25;4.40;99.90
12815;DHT22;6472;52.328;13.070;2023-02-19T03:06:54;4.40;99.90
12815;DHT22;6472;52.328;13.070;2023-02-19T03:09:29;4.40;99.90
12815;DHT22;6472;52.328;13.070;2023-02-19T03:12:01;4.30;99.90
12815;DHT22;6472;52.328;13.070;2023-02-19T03:14:52;4.30;99.90
12815;DHT22;6472;52.328;13.070;2023-02-19T03:17:43;4.40;99.90
12815;DHT22;6472;52.328;13.070;2023-02-19T03:20:33;4.30;99.90
12815;DHT22;6472;52.328;13.070;2023-02-19T03:23:05;4.40;99.90
12815;DHT22;6472;52.328;13.070;2023-02-19T03:25:35;4.30;99.90
12815;DHT22;6472;52.328;13.070;2023-02-19T03:28:25;4.30;99.90
12815;DHT22;6472;52.328;13.070;2023-02-19T03:31:17;4.30;99.90
12815;DHT22;6472;52.328;13.070;2023-02-19T03:33:52;4.30;99.90
12815;DHT22;6472;52.328;13.070;2023-02-19T03:36:22;4.30;99.90
12815;DHT22;6472;52.328;13.070;2023-02-19T03:38:56;4.30;99.90
12815;DHT22;6472;52.328;13.070;2023-02-19T03:41:30;4.30;99.90
12815;DHT22;6472;52.328;13.070;2023-02-19T03:44:07;4.20;99.90
12815;DHT22;6472;52.328;13.070;2023-02-19T03:46:43;4.10;99.90
12815;DHT22;6472;52.328;13.070;2023-02-19T03:49:19;4.00;99.90
12815;DHT22;6472;52.328;13.070;2023-02-19T03:51:53;3.80;99.90
12815;DHT22;6472;52.328;13.070;2023-02-19T03:54:31;3.70;99.90
12815;DHT22;6472;52.328;13.070;2023-02-19T03:57:04;3.70;99.90
12815;DHT22;6472;52.328;13.070;2023-02-19T03:59:39;3.60;99.90
12815;DHT22;6472;52.328;13.070;2023-02-19T04:02:11;3.60;99.90
12815;DHT22;6472;52.328;13.070;2023-02-19T04:04:44;3.60;99.90
12815;DHT22;6472;52.328;13.070;2023-02-19T04:07:14;3.50;99.90
12815;DHT22;6472;52.328;13.070;2023-02-19T04:09:45;3.50;99.90
12815;DHT22;6472;52.328;13.070;2023-02-19T04:12:14;3.40;99.90
12815;DHT22;6472;52.328;13.070;2023-02-19T04:14:46;3.30;99.90
12815;DHT22;6472;52.328;13.070;2023-02-19T04:17:19;3.30;99.90
12815;DHT22;6472;52.328;13.070;2023-02-19T04:19:49;3.40;99.90
12815;DHT22;6472;52.328;13.070;2023-02-19T04:22:18;3.30;99.90
12815;DHT22;6472;52.328;13.070;2023-02-19T04:24:51;3.30;99.90
12815;DHT22;6472;52.328;13.070;2023-02-19T04:27:19;3.20;99.90
12815;DHT22;6472;52.328;13.070;2023-02-19T04:29:47;3.20;99.90
12815;DHT22;6472;52.328;13.070;2023-02-19T04:32:15;3.10;99.90
12815;DHT22;6472;52.328;13.070;2023-02-19T04:34:43;3.10;99.90
12815;DHT22;6472;52.328;13.070;2023-02-19T04:37:13;3.00;99.90
12815;DHT22;6472;52.328;13.070;2023-02-19T04:39:41;3.00;99.90
12815;DHT22;6472;52.328;13.070;2023-02-19T04:42:09;3.00;99.90
12815;DHT22;6472;52.328;13.070;2023-02-19T04:44:37;2.90;99.90
12815;DHT22;6472;52.328;13.070;2023-02-19T04:47:06;3.00;99.90
12815;DHT22;6472;52.328;13.070;2023-02-19T04:49:35;2.90;99.90
12815;DHT22;6472;52.328;13.070;2023-02-19T04:52:03;2.80;99.90
12815;DHT22;6472;52.328;13.070;2023-02-19T04:54:32;2.80;99.90
12815;DHT22;6472;52.328;13.070;2023-02-19T04:57:00;2.70;99.90
12815;DHT22;6472;52.328;13.070;2023-02-19T04:59:29;2.70;99.90
12815;DHT22;6472;52.328;13.070;2023-02-19T05:01:57;2.70;99.90
12815;DHT22;6472;52.328;13.070;2023-02-19T05:04:25;2.60;99.90
12815;DHT22;6472;52.328;13.070;2023-02-19T05:06:53;2.60;99.90
12815;DHT22;6472;52.328;13.070;2023-02-19T05:09:21;2.60;99.90
12815;DHT22;6472;52.328;13.070;2023-02-19T05:11:50;2.60;99.90
12815;DHT22;6472;52.328;13.070;2023-02-19T05:14:18;2.50;99.90
12815;DHT22;6472;52.328;13.070;2023-02-19T05:16:46;2.50;99.90
12815;DHT22;6472;52.328;13.070;2023-02-19T05:19:15;2.50;99.90
12815;DHT22;6472;52.328;13.070;2023-02-19T05:21:43;2.50;99.90
12815;DHT22;6472;52.328;13.070;2023-02-19T05:24:11;2.60;99.90
12815;DHT22;6472;52.328;13.070;2023-02-19T05:26:39;2.50;99.90
12815;DHT22;6472;52.328;13.070;2023-02-19T05:29:12;2.50;99.90
12815;DHT22;6472;52.328;13.070;2023-02-19T05:31:40;2.50;99.90
12815;DHT22;6472;52.328;13.070;2023-02-19T05:34:08;2.50;99.90
12815;DHT22;6472;52.328;13.070;2023-02-19T05:36:36;2.50;99.90
12815;DHT22;6472;52.328;13.070;2023-02-19T05:39:04;2.40;99.90
12815;DHT22;6472;52.328;13.070;2023-02-19T05:41:33;2.50;99.90
12815;DHT22;6472;52.328;13.070;2023-02-19T05:44:01;2.40;99.90
12815;DHT22;6472;52.328;13.070;2023-02-19T05:46:30;2.40;99.90
12815;DHT22;6472;52.328;13.070;2023-02-19T05:48:58;2.40;99.90
12815;DHT22;6472;52.328;13.070;2023-02-19T05:51:27;2.30;99.90
12815;DHT22;6472;52.328;13.070;2023-02-19T05:53:56;2.30;99.90
12815;DHT22;6472;52.328;13.070;2023-02-19T05:56:31;2.40;99.90
12815;DHT22;6472;52.328;13.070;2023-02-19T05:59:01;2.30;99.90
12815;DHT22;6472;52.328;13.070;2023-02-19T06:01:32;2.40;99.90
12815;DHT22;6472;52.328;13.070;2023-02-19T06:04:00;2.30;99.90
12815;DHT22;6472;52.328;13.070;2023-02-19T06:06:28;2.30;99.90
12815;DHT22;6472;52.328;13.070;2023-02-19T06:08:56;2.30;99.90
12815;DHT22;6472;52.328;13.070;2023-02-19T06:11:25;2.40;99.90
12815;DHT22;6472;52.328;13.070;2023-02-19T06:13:53;2.40;99.90
12815;DHT22;6472;52.328;13.070;2023-02-19T06:16:21;2.40;99.90
12815;DHT22;6472;52.328;13.070;2023-02-19T06:18:51;2.40;99.90
12815;DHT22;6472;52.328;13.070;2023-02-19T06:21:19;2.40;99.90
12815;DHT22;6472;52.328;13.070;2023-02-19T06:23:47;2.40;99.90
12815;DHT22;6472;52.328;13.070;2023-02-19T06:26:19;2.40;99.90
12815;DHT22;6472;52.328;13.070;2023-02-19T06:28:49;2.40;99.90
12815;DHT22;6472;52.328;13.070;2023-02-19T06:31:18;2.30;99.90
12815;DHT22;6472;52.328;13.070;2023-02-19T06:33:47;2.30;99.90
12815;DHT22;6472;52.328;13.070;2023-02-19T06:36:22;2.40;99.90
12815;DHT22;6472;52.328;13.070;2023-02-19T06:38:50;2.50;99.90
12815;DHT22;6472;52.328;13.070;2023-02-19T06:41:22;2.50;99.90
12815;DHT22;6472;52.328;13.070;2023-02-19T06:43:56;2.40;99.90
12815;DHT22;6472;52.328;13.070;2023-02-19T06:46:26;2.40;99.90
12815;DHT22;6472;52.328;13.070;2023-02-19T06:48:54;2.50;99.90
12815;DHT22;6472;52.328;13.070;2023-02-19T06:51:24;2.50;99.90
12815;DHT22;6472;52.328;13.070;2023-02-19T06:53:55;2.50;99.90
12815;DHT22;6472;52.328;13.070;2023-02-19T06:56:25;2.50;99.90
12815;DHT22;6472;52.328;13.070;2023-02-19T06:58:55;2.60;99.90
12815;DHT22;6472;52.328;13.070;2023-02-19T07:01:26;2.60;99.90
12815;DHT22;6472;52.328;13.070;2023-02-19T07:03:54;2.60;99.90
12815;DHT22;6472;52.328;13.070;2023-02-19T07:06:25;2.60;99.90
12815;DHT22;6472;52.328;13.070;2023-02-19T07:08:54;2.60;99.90
12815;DHT22;6472;52.328;13.070;2023-02-19T07:11:24;2.60;99.90
12815;DHT22;6472;52.328;13.070;2023-02-19T07:13:53;2.60;99.90
12815;DHT22;6472;52.328;13.070;2023-02-19T07:16:22;2.70;99.90
12815;DHT22;6472;52.328;13.070;2023-02-19T07:18:51;2.70;99.90
12815;DHT22;6472;52.328;13.070;2023-02-19T07:21:19;2.70;99.90
12815;DHT22;6472;52.328;13.070;2023-02-19T07:23:48;2.70;99.90
12815;DHT22;6472;52.328;13.070;2023-02-19T07:26:18;2.80;99.90
12815;DHT22;6472;52.328;13.070;2023-02-19T07:28:48;2.80;99.90
12815;DHT22;6472;52.328;13.070;2023-02-19T07:31:17;2.90;99.90
12815;DHT22;6472;52.328;13.070;2023-02-19T07:33:47;2.90;99.90
12815;DHT22;6472;52.328;13.070;2023-02-19T07:36:17;2.90;99.90
12815;DHT22;6472;52.328;13.070;2023-02-19T07:38:45;3.00;99.90
12815;DHT22;6472;52.328;13.070;2023-02-19T07:41:14;3.30;99.90
12815;DHT22;6472;52.328;13.070;2023-02-19T07:43:42;3.20;99.90
12815;DHT22;6472;52.328;13.070;2023-02-19T07:46:12;3.30;99.90
12815;DHT22;6472;52.328;13.070;2023-02-19T07:48:41;3.30;99.90
12815;DHT22;6472;52.328;13.070;2023-02-19T07:51:12;3.40;99.90
12815;DHT22;6472;52.328;13.070;2023-02-19T07:53:42;3.30;99.90
12815;DHT22;6472;52.328;13.070;2023-02-19T07:56:11;3.20;99.90
12815;DHT22;6472;52.328;13.070;2023-02-19T07:58:41;3.30;99.90
12815;DHT22;6472;52.328;13.070;2023-02-19T08:01:12;3.30;99.90
12815;DHT22;6472;52.328;13.070;2023-02-19T08:03:41;3.40;99.90
12815;DHT22;6472;52.328;13.070;2023-02-19T08:06:10;3.50;99.90
12815;DHT22;6472;52.328;13.070;2023-02-19T08:08:39;3.60;99.90
12815;DHT22;6472;52.328;13.070;2023-02-19T08:11:08;3.80;99.90
12815;DHT22;6472;52.328;13.070;2023-02-19T08:13:55;3.90;99.90
12815;DHT22;6472;52.328;13.070;2023-02-19T08:16:24;4.00;99.90
12815;DHT22;6472;52.328;13.070;2023-02-19T08:19:08;4.00;99.90
12815;DHT22;6472;52.328;13.070;2023-02-19T08:21:36;4.10;99.90
12815;DHT22;6472;52.328;13.070;2023-02-19T08:24:05;4.20;99.90
12815;DHT22;6472;52.328;13.070;2023-02-19T08:26:34;4.30;99.90
12815;DHT22;6472;52.328;13.070;2023-02-19T08:29:09;4.40;99.90
12815;DHT22;6472;52.328;13.070;2023-02-19T08:31:42;4.80;99.90
12815;DHT22;6472;52.328;13.070;2023-02-19T08:34:10;5.10;99.90
12815;DHT22;6472;52.328;13.070;2023-02-19T08:36:38;5.20;99.90
12815;DHT22;6472;52.328;13.070;2023-02-19T08:39:06;5.40;99.90
12815;DHT22;6472;52.328;13.070;2023-02-19T08:41:34;5.80;99.90
12815;DHT22;6472;52.328;13.070;2023-02-19T08:44:02;5.80;99.90
12815;DHT22;6472;52.328;13.070;2023-02-19T08:46:31;6.00;99.90
12815;DHT22;6472;52.328;13.070;2023-02-19T08:49:00;6.20;99.90
12815;DHT22;6472;52.328;13.070;2023-02-19T08:51:28;6.50;99.90
12815;DHT22;6472;52.328;13.070;2023-02-19T08:53:56;6.40;99.90
12815;DHT22;6472;52.328;13.070;2023-02-19T08:56:24;6.60;99.90
12815;DHT22;6472;52.328;13.070;2023-02-19T08:58:53;6.80;99.90
12815;DHT22;6472;52.328;13.070;2023-02-19T09:01:20;6.80;99.90
12815;DHT22;6472;52.328;13.070;2023-02-19T09:03:52;7.00;99.90
12815;DHT22;6472;52.328;13.070;2023-02-19T09:06:20;7.10;99.90
12815;DHT22;6472;52.328;13.070;2023-02-19T09:08:47;7.30;99.90
12815;DHT22;6472;52.328;13.070;2023-02-19T09:11:16;7.40;99.90
12815;DHT22;6472;52.328;13.070;2023-02-19T09:13:44;7.20;99.90
12815;DHT22;6472;52.328;13.070;2023-02-19T09:16:12;7.40;99.90
12815;DHT22;6472;52.328;13.070;2023-02-19T09:18:40;7.00;99.90
12815;DHT22;6472;52.328;13.070;2023-02-19T09:21:10;6.90;99.90
12815;DHT22;6472;52.328;13.070;2023-02-19T09:23:38;7.00;99.90
12815;DHT22;6472;52.328;13.070;2023-02-19T09:26:07;6.40;99.90
12815;DHT22;6472;52.328;13.070;2023-02-19T09:28:36;6.30;99.90
12815;DHT22;6472;52.328;13.070;2023-02-19T09:31:09;6.30;99.90
12815;DHT22;6472;52.328;13.070;2023-02-19T09:33:41;6.30;99.90
12815;DHT22;6472;52.328;13.070;2023-02-19T09:36:12;6.50;99.90
12815;DHT22;6472;52.328;13.070;2023-02-19T09:38:40;6.50;99.90
12815;DHT22;6472;52.328;13.070;2023-02-19T09:41:14;6.80;99.90
12815;DHT22;6472;52.328;13.070;2023-02-19T09:43:44;7.00;99.90
12815;DHT22;6472;52.328;13.070;2023-02-19T09:46:23;7.30;99.90
12815;DHT22;6472;52.328;13.070;2023-02-19T09:49:01;7.10;99.90
12815;DHT22;6472;52.328;13.070;2023-02-19T09:51:33;6.80;99.90
12815;DHT22;6472;52.328;13.070;2023-02-19T09:54:06;7.00;99.90
12815;DHT22;6472;52.328;13.070;2023-02-19T09:56:37;7.40;99.90
12815;DHT22;6472;52.328;13.070;2023-02-19T09:59:06;7.40;99.90
12815;DHT22;6472;52.328;13.070;2023-02-19T10:01:42;7.80;99.90
12815;DHT22;6472;52.328;13.070;2023-02-19T10:04:11;7.70;99.90
12815;DHT22;6472;52.328;13.070;2023-02-19T10:06:40;7.70;99.90
12815;DHT22;6472;52.328;13.070;2023-02-19T10:09:16;7.90;99.90
12815;DHT22;6472;52.328;13.070;2023-02-19T10:11:47;7.70;99.90
12815;DHT22;6472;52.328;13.070;2023-02-19T10:14:19;7.80;99.90
12815;DHT22;6472;52.328;13.070;2023-02-19T10:16:51;8.10;99.90
12815;DHT22;6472;52.328;13.070;2023-02-19T10:19:19;7.90;99.90
12815;DHT22;6472;52.328;13.070;2023-02-19T10:21:48;7.50;99.90
12815;DHT22;6472;52.328;13.070;2023-02-19T10:24:20;7.40;99.90
12815;DHT22;6472;52.328;13.070;2023-02-19T10:26:51;7.50;99.90
12815;DHT22;6472;52.328;13.070;2023-02-19T10:29:20;7.50;99.90
12815;DHT22;6472;52.328;13.070;2023-02-19T10:32:11;7.90;99.90
12815;DHT22;6472;52.328;13.070;2023-02-19T10:34:39;8.00;99.90
12815;DHT22;6472;52.328;13.070;2023-02-19T10:37:12;7.60;99.90
12815;DHT22;6472;52.328;13.070;2023-02-19T10:39:43;7.00;99.90
12815;DHT22;6472;52.328;13.070;2023-02-19T10:42:17;7.20;99.90
12815;DHT22;6472;52.328;13.070;2023-02-19T10:44:50;7.40;99.90
12815;DHT22;6472;52.328;13.070;2023-02-19T10:47:21;7.60;99.90
12815;DHT22;6472;52.328;13.070;2023-02-19T10:49:51;7.60;99.90
12815;DHT22;6472;52.328;13.070;2023-02-19T10:52:24;7.80;99.90
12815;DHT22;6472;52.328;13.070;2023-02-19T10:54:56;7.50;99.90
12815;DHT22;6472;52.328;13.070;2023-02-19T10:57:28;7.60;99.90
12815;DHT22;6472;52.328;13.070;2023-02-19T11:00:00;7.50;99.90
12815;DHT22;6472;52.328;13.070;2023-02-19T11:02:30;7.60;99.90
12815;DHT22;6472;52.328;13.070;2023-02-19T11:05:05;7.60;99.90
12815;DHT22;6472;52.328;13.070;2023-02-19T11:07:34;7.40;99.90
12815;DHT22;6472;52.328;13.070;2023-02-19T11:10:04;7.30;99.90
12815;DHT22;6472;52.328;13.070;2023-02-19T11:12:34;7.30;99.90
12815;DHT22;6472;52.328;13.070;2023-02-19T11:15:19;7.40;99.90
12815;DHT22;6472;52.328;13.070;2023-02-19T11:17:54;7.30;99.90
12815;DHT22;6472;52.328;13.070;2023-02-19T11:20:23;7.20;99.90
12815;DHT22;6472;52.328;13.070;2023-02-19T11:22:56;7.20;99.90
12815;DHT22;6472;52.328;13.070;2023-02-19T11:25:26;7.00;99.90
12815;DHT22;6472;52.328;13.070;2023-02-19T11:27:57;6.80;99.90
12815;DHT22;6472;52.328;13.070;2023-02-19T11:30:35;6.60;99.90
12815;DHT22;6472;52.328;13.070;2023-02-19T11:33:21;6.60;99.90
12815;DHT22;6472;52.328;13.070;2023-02-19T11:35:56;6.90;99.90
12815;DHT22;6472;52.328;13.070;2023-02-19T11:38:27;7.10;99.90
12815;DHT22;6472;52.328;13.070;2023-02-19T11:41:03;7.20;99.90
12815;DHT22;6472;52.328;13.070;2023-02-19T11:43:53;7.20;99.90
12815;DHT22;6472;52.328;13.070;2023-02-19T11:46:29;7.10;99.90
12815;DHT22;6472;52.328;13.070;2023-02-19T11:49:13;6.90;99.90
12815;DHT22;6472;52.328;13.070;2023-02-19T11:52:01;7.00;99.90
12815;DHT22;6472;52.328;13.070;2023-02-19T11:54:44;7.20;99.90
12815;DHT22;6472;52.328;13.070;2023-02-19T11:57:22;7.30;99.90
12815;DHT22;6472;52.328;13.070;2023-02-19T12:00:00;7.50;99.90
12815;DHT22;6472;52.328;13.070;2023-02-19T12:02:43;7.60;99.90
12815;DHT22;6472;52.328;13.070;2023-02-19T12:05:25;7.70;99.90
12815;DHT22;6472;52.328;13.070;2023-02-19T12:08:34;7.50;99.90
12815;DHT22;6472;52.328;13.070;2023-02-19T12:17:10;7.10;99.90
12815;DHT22;6472;52.328;13.070;2023-02-19T12:19:54;7.10;99.90
12815;DHT22;6472;52.328;13.070;2023-02-19T12:22:28;7.30;99.90
12815;DHT22;6472;52.328;13.070;2023-02-19T12:25:17;7.20;99.90
12815;DHT22;6472;52.328;13.070;2023-02-19T12:28:04;7.50;99.90
12815;DHT22;6472;52.328;13.070;2023-02-19T12:30:51;7.40;99.90
12815;DHT22;6472;52.328;13.070;2023-02-19T12:33:43;7.40;99.90
12815;DHT22;6472;52.328;13.070;2023-02-19T12:36:20;7.00;99.90
12815;DHT22;6472;52.328;13.070;2023-02-19T12:39:02;6.90;99.90
12815;DHT22;6472;52.328;13.070;2023-02-19T12:41:39;7.00;99.90
12815;DHT22;6472;52.328;13.070;2023-02-19T12:44:15;7.10;99.90
12815;DHT22;6472;52.328;13.070;2023-02-19T12:46:48;7.10;99.90
12815;DHT22;6472;52.328;13.070;2023-02-19T12:49:22;7.10;99.90
12815;DHT22;6472;52.328;13.070;2023-02-19T12:51:56;7.20;99.90
12815;DHT22;6472;52.328;13.070;2023-02-19T12:54:27;7.20;99.90
12815;DHT22;6472;52.328;13.070;2023-02-19T12:57:00;7.20;99.90
12815;DHT22;6472;52.328;13.070;2023-02-19T12:59:32;7.10;99.90
12815;DHT22;6472;52.328;13.070;2023-02-19T13:02:08;7.10;99.90
12815;DHT22;6472;52.328;13.070;2023-02-19T13:04:42;7.10;99.90
12815;DHT22;6472;52.328;13.070;2023-02-19T13:07:14;7.10;99.90
12815;DHT22;6472;52.328;13.070;2023-02-19T13:09:47;7.00;99.90
12815;DHT22;6472;52.328;13.070;2023-02-19T13:12:20;6.70;99.90
12815;DHT22;6472;52.328;13.070;2023-02-19T13:14:55;6.60;99.90
12815;DHT22;6472;52.328;13.070;2023-02-19T13:17:28;6.80;99.90
12815;DHT22;6472;52.328;13.070;2023-02-19T13:20:03;7.10;99.90
12815;DHT22;6472;52.328;13.070;2023-02-19T13:22:40;7.40;99.90
12815;DHT22;6472;52.328;13.070;2023-02-19T13:25:40;7.30;99.90
12815;DHT22;6472;52.328;13.070;2023-02-19T13:28:19;7.30;99.90
12815;DHT22;6472;52.328;13.070;2023-02-19T13:31:09;7.20;99.90
12815;DHT22;6472;52.328;13.070;2023-02-19T13:33:52;7.10;99.90
12815;DHT22;6472;52.328;13.070;2023-02-19T13:36:24;7.10;99.90
12815;DHT22;6472;52.328;13.070;2023-02-19T13:38:53;7.10;99.90
12815;DHT22;6472;52.328;13.070;2023-02-19T13:41:28;7.10;99.90
12815;DHT22;6472;52.328;13.070;2023-02-19T13:44:00;7.20;99.90
12815;DHT22;6472;52.328;13.070;2023-02-19T13:46:37;7.20;99.90
12815;DHT22;6472;52.328;13.070;2023-02-19T13:49:39;7.30;99.90
12815;DHT22;6472;52.328;13.070;2023-02-19T13:55:44;7.60;99.90
12815;DHT22;6472;52.328;13.070;2023-02-19T14:04:49;7.60;99.90
12815;DHT22;6472;52.328;13.070;2023-02-19T14:07:51;7.50;99.90
12815;DHT22;6472;52.328;13.070;2023-02-19T14:13:54;7.40;99.90
12815;DHT22;6472;52.328;13.070;2023-02-19T14:19:51;7.60;99.90
12815;DHT22;6472;52.328;13.070;2023-02-19T14:22:46;7.50;99.90
12815;DHT22;6472;52.328;13.070;2023-02-19T14:25:28;7.50;99.90
12815;DHT22;6472;52.328;13.070;2023-02-19T14:28:00;7.50;99.90
12815;DHT22;6472;52.328;13.070;2023-02-19T14:30:31;7.60;99.90
12815;DHT22;6472;52.328;13.070;2023-02-19T14:33:02;7.60;99.90
12815;DHT22;6472;52.328;13.070;2023-02-19T14:35:40;7.70;99.90
12815;DHT22;6472;52.328;13.070;2023-02-19T14:38:14;7.60;99.90
12815;DHT22;6472;52.328;13.070;2023-02-19T14:40:45;7.60;99.90
12815;DHT22;6472;52.328;13.070;2023-02-19T14:43:16;7.50;99.90
12815;DHT22;6472;52.328;13.070;2023-02-19T14:45:47;7.30;99.90
12815;DHT22;6472;52.328;13.070;2023-02-19T14:48:19;7.00;99.90
12815;DHT22;6472;52.328;13.070;2023-02-19T14:50:53;6.90;99.90
12815;DHT22;6472;52.328;13.070;2023-02-19T14:53:23;6.90;99.90
12815;DHT22;6472;52.328;13.070;2023-02-19T14:55:54;6.80;99.90
12815;DHT22;6472;52.328;13.070;2023-02-19T14:58:27;6.70;99.90
12815;DHT22;6472;52.328;13.070;2023-02-19T15:00:56;6.80;99.90
12815;DHT22;6472;52.328;13.070;2023-02-19T15:03:30;6.80;99.90
12815;DHT22;6472;52.328;13.070;2023-02-19T15:06:04;6.70;99.90
12815;DHT22;6472;52.328;13.070;2023-02-19T15:08:35;6.60;99.90
12815;DHT22;6472;52.328;13.070;2023-02-19T15:11:08;6.50;99.90
12815;DHT22;6472;52.328;13.070;2023-02-19T15:13:38;6.40;99.90
12815;DHT22;6472;52.328;13.070;2023-02-19T15:16:16;6.20;99.90
12815;DHT22;6472;52.328;13.070;2023-02-19T15:18:45;6.20;99.90
12815;DHT22;6472;52.328;13.070;2023-02-19T15:21:22;6.00;99.90
12815;DHT22;6472;52.328;13.070;2023-02-19T15:23:53;6.00;99.90
12815;DHT22;6472;52.328;13.070;2023-02-19T15:26:25;5.80;99.90
12815;DHT22;6472;52.328;13.070;2023-02-19T15:28:59;5.70;99.90
12815;DHT22;6472;52.328;13.070;2023-02-19T15:31:28;5.60;99.90
12815;DHT22;6472;52.328;13.070;2023-02-19T15:33:56;5.60;99.90
12815;DHT22;6472;52.328;13.070;2023-02-19T15:36:28;5.50;99.90
12815;DHT22;6472;52.328;13.070;2023-02-19T15:38:59;5.50;99.90
12815;DHT22;6472;52.328;13.070;2023-02-19T15:41:31;5.50;99.90
12815;DHT22;6472;52.328;13.070;2023-02-19T15:44:13;5.50;99.90
12815;DHT22;6472;52.328;13.070;2023-02-19T15:46:45;5.50;99.90
12815;DHT22;6472;52.328;13.070;2023-02-19T15:49:17;5.40;99.90
12815;DHT22;6472;52.328;13.070;2023-02-19T15:51:51;5.20;99.90
12815;DHT22;6472;52.328;13.070;2023-02-19T15:54:23;5.10;99.90
12815;DHT22;6472;52.328;13.070;2023-02-19T15:56:55;5.00;99.90
12815;DHT22;6472;52.328;13.070;2023-02-19T15:59:27;4.90;99.90
12815;DHT22;6472;52.328;13.070;2023-02-19T16:01:56;4.80;99.90
12815;DHT22;6472;52.328;13.070;2023-02-19T16:04:24;4.80;99.90
12815;DHT22;6472;52.328;13.070;2023-02-19T16:06:56;4.70;99.90
12815;DHT22;6472;52.328;13.070;2023-02-19T16:09:28;4.60;99.90
12815;DHT22;6472;52.328;13.070;2023-02-19T16:11:59;4.50;99.90
12815;DHT22;6472;52.328;13.070;2023-02-19T16:14:29;4.50;99.90
12815;DHT22;6472;52.328;13.070;2023-02-19T16:17:03;4.50;99.90
12815;DHT22;6472;52.328;13.070;2023-02-19T16:19:43;4.40;99.90
12815;DHT22;6472;52.328;13.070;2023-02-19T16:22:16;4.40;99.90
12815;DHT22;6472;52.328;13.070;2023-02-19T16:24:47;4.30;99.90
12815;DHT22;6472;52.328;13.070;2023-02-19T16:27:27;4.20;99.90
12815;DHT22;6472;52.328;13.070;2023-02-19T16:29:57;4.20;99.90
12815;DHT22;6472;52.328;13.070;2023-02-19T16:32:26;4.00;99.90
12815;DHT22;6472;52.328;13.070;2023-02-19T16:34:54;4.00;99.90
12815;DHT22;6472;52.328;13.070;2023-02-19T16:37:31;3.90;99.90
12815;DHT22;6472;52.328;13.070;2023-02-19T16:43:23;3.60;99.90
12815;DHT22;6472;52.328;13.070;2023-02-19T16:45:52;3.40;99.90
12815;DHT22;6472;52.328;13.070;2023-02-19T16:48:22;3.20;99.90